sensor_id;sensor_type;location;lat;lon;timestamp;pressure;altitude;pressure_sealevel;temperature;humidity
40490;BME280;26196;52.302;10.572;2023-05-23T00:03:50;100357.94;;;23.64;47.33
40490;BME280;26196;52.302;10.572;2023-05-23T00:07:51;100358.22;;;23.61;47.29
40490;BME280;26196;52.302;10.572;2023-05-23T00:11:51;100343.53;;;23.55;47.46
40490;BME280;26196;52.302;10.572;2023-05-23T00:15:52;100347.31;;;23.52;47.36
40490;BME280;26196;52.302;10.572;2023-05-23T00:19:52;100333.97;;;23.52;47.37
40490;BME280;26196;52.302;10.572;2023-05-23T00:23:55;100336.63;;;23.52;47.42
40490;BME280;26196;52.302;10.572;2023-05-23T00:27:55;100331.56;;;23.49;47.59
40490;BME280;26196;52.302;10.572;2023-05-23T00:31:56;100336.03;;;23.49;47.34
40490;BME280;26196;52.302;10.572;2023-05-23T00:35:56;100349.91;;;23.43;47.26
40490;BME280;26196;52.302;10.572;2023-05-23T00:39:56;100344.44;;;23.44;47.49
40490;BME280;26196;52.302;10.572;2023-05-23T00:43:57;100352.72;;;23.41;47.20
40490;BME280;26196;52.302;10.572;2023-05-23T00:47:59;100360.47;;;23.44;47.19
40490;BME280;26196;52.302;10.572;2023-05-23T00:52:00;100369.44;;;23.43;47.46
40490;BME280;26196;52.302;10.572;2023-05-23T00:56:01;100364.38;;;23.40;47.27
40490;BME280;26196;52.302;10.572;2023-05-23T01:00:02;100360.97;;;23.38;47.56
40490;BME280;26196;52.302;10.572;2023-05-23T01:04:03;100362.69;;;23.39;47.51
40490;BME280;26196;52.302;10.572;2023-05-23T01:08:03;100365.63;;;23.36;47.51
40490;BME280;26196;52.302;10.572;2023-05-23T01:20:12;100372.44;;;23.29;47.71
40490;BME280;26196;52.302;10.572;2023-05-23T01:24:57;100370.72;;;23.28;48.21
40490;BME280;26196;52.302;10.572;2023-05-23T01:28:57;100367.00;;;23.19;48.23
40490;BME280;26196;52.302;10.572;2023-05-23T01:33:06;100373.91;;;23.22;48.55
40490;BME280;26196;52.302;10.572;2023-05-23T01:37:09;100367.38;;;23.14;48.75
40490;BME280;26196;52.302;10.572;2023-05-23T01:41:10;100375.13;;;23.18;48.62
40490;BME280;26196;52.302;10.572;2023-05-23T01:45:11;100377.78;;;23.18;48.52
40490;BME280;26196;52.302;10.572;2023-05-23T01:49:13;100368.81;;;23.19;48.34
40490;BME280;26196;52.302;10.572;2023-05-23T01:53:18;100358.88;;;23.09;48.85
40490;BME280;26196;52.302;10.572;2023-05-23T01:57:18;100373.44;;;23.17;48.84
40490;BME280;26196;52.302;10.572;2023-05-23T02:01:20;100371.75;;;23.15;48.69
40490;BME280;26196;52.302;10.572;2023-05-23T02:05:20;100371.41;;;23.09;49.08
40490;BME280;26196;52.302;10.572;2023-05-23T02:09:20;100362.66;;;23.07;48.42
40490;BME280;26196;52.302;10.572;2023-05-23T02:13:21;100365.22;;;23.08;48.76
40490;BME280;26196;52.302;10.572;2023-05-23T02:17:21;100363.38;;;23.09;48.56
40490;BME280;26196;52.302;10.572;2023-05-23T02:21:23;100354.19;;;23.02;48.51
40490;BME280;26196;52.302;10.572;2023-05-23T02:25:24;100362.44;;;23.10;48.68
40490;BME280;26196;52.302;10.572;2023-05-23T02:29:24;100360.13;;;23.05;48.62
40490;BME280;26196;52.302;10.572;2023-05-23T02:33:24;100369.72;;;23.08;48.62
40490;BME280;26196;52.302;10.572;2023-05-23T02:37:25;100369.81;;;23.06;48.88
40490;BME280;26196;52.302;10.572;2023-05-23T02:41:25;100369.34;;;23.01;48.55
40490;BME280;26196;52.302;10.572;2023-05-23T02:45:26;100380.28;;;22.98;48.92
40490;BME280;26196;52.302;10.572;2023-05-23T02:49:26;100371.50;;;22.96;48.88
40490;BME280;26196;52.302;10.572;2023-05-23T02:53:26;100376.25;;;22.92;49.04
40490;BME280;26196;52.302;10.572;2023-05-23T02:57:27;100376.84;;;22.96;49.02
40490;BME280;26196;52.302;10.572;2023-05-23T03:01:27;100373.72;;;22.91;48.78
40490;BME280;26196;52.302;10.572;2023-05-23T03:05:27;100384.31;;;22.81;49.27
40490;BME280;26196;52.302;10.572;2023-05-23T03:09:28;100385.63;;;22.76;49.72
40490;BME280;26196;52.302;10.572;2023-05-23T03:13:29;100383.44;;;22.69;49.88
40490;BME280;26196;52.302;10.572;2023-05-23T03:17:29;100390.25;;;22.62;50.30
40490;BME280;26196;52.302;10.572;2023-05-23T03:21:31;100390.75;;;22.56;50.57
40490;BME280;26196;52.302;10.572;2023-05-23T03:25:31;100395.84;;;22.48;51.33
40490;BME280;26196;52.302;10.572;2023-05-23T03:29:32;100404.53;;;22.39;51.77
40490;BME280;26196;52.302;10.572;2023-05-23T03:33:32;100400.78;;;22.30;51.34
40490;BME280;26196;52.302;10.572;2023-05-23T03:37:32;100405.59;;;22.14;51.69
40490;BME280;26196;52.302;10.572;2023-05-23T03:41:33;100404.72;;;22.13;51.47
40490;BME280;26196;52.302;10.572;2023-05-23T03:45:33;100414.19;;;22.06;51.34
40490;BME280;26196;52.302;10.572;2023-05-23T03:49:34;100419.84;;;21.66;51.90
40490;BME280;26196;52.302;10.572;2023-05-23T03:53:34;100417.00;;;21.80;51.62
40490;BME280;26196;52.302;10.572;2023-05-23T03:57:34;100416.34;;;22.01;51.37
40490;BME280;26196;52.302;10.572;2023-05-23T04:01:35;100425.53;;;22.08;51.05
40490;BME280;26196;52.302;10.572;2023-05-23T04:05:35;100428.00;;;22.11;51.00
40490;BME280;26196;52.302;10.572;2023-05-23T04:09:35;100432.25;;;22.14;51.04
40490;BME280;26196;52.302;10.572;2023-05-23T04:13:36;100432.09;;;22.04;51.19
40490;BME280;26196;52.302;10.572;2023-05-23T04:17:37;100438.84;;;21.97;51.03
40490;BME280;26196;52.302;10.572;2023-05-23T04:21:37;100439.06;;;21.82;51.35
40490;BME280;26196;52.302;10.572;2023-05-23T04:25:38;100438.06;;;21.72;50.93
40490;BME280;26196;52.302;10.572;2023-05-23T04:29:38;100439.97;;;21.70;51.01
40490;BME280;26196;52.302;10.572;2023-05-23T04:33:39;100451.25;;;21.50;51.41
40490;BME280;26196;52.302;10.572;2023-05-23T04:37:40;100441.47;;;21.37;51.45
40490;BME280;26196;52.302;10.572;2023-05-23T04:41:41;100450.28;;;21.14;52.14
40490;BME280;26196;52.302;10.572;2023-05-23T04:45:46;100456.59;;;21.37;51.46
40490;BME280;26196;52.302;10.572;2023-05-23T04:49:49;100437.66;;;21.41;51.18
40490;BME280;26196;52.302;10.572;2023-05-23T04:53:50;100443.25;;;21.50;51.09
40490;BME280;26196;52.302;10.572;2023-05-23T04:57:51;100450.13;;;21.28;51.18
40490;BME280;26196;52.302;10.572;2023-05-23T05:01:52;100450.00;;;21.42;51.03
40490;BME280;26196;52.302;10.572;2023-05-23T05:05:52;100454.38;;;21.44;50.84
40490;BME280;26196;52.302;10.572;2023-05-23T05:09:53;100460.78;;;21.41;50.84
40490;BME280;26196;52.302;10.572;2023-05-23T05:13:53;100444.91;;;21.39;50.84
40490;BME280;26196;52.302;10.572;2023-05-23T05:17:53;100445.66;;;21.41;50.83
40490;BME280;26196;52.302;10.572;2023-05-23T05:21:54;100445.56;;;21.30;51.66
40490;BME280;26196;52.302;10.572;2023-05-23T05:25:55;100453.03;;;21.38;51.98
40490;BME280;26196;52.302;10.572;2023-05-23T05:29:55;100451.22;;;21.38;51.92
40490;BME280;26196;52.302;10.572;2023-05-23T05:33:58;100445.66;;;21.41;52.13
40490;BME280;26196;52.302;10.572;2023-05-23T05:37:59;100433.09;;;21.44;51.45
40490;BME280;26196;52.302;10.572;2023-05-23T05:42:00;100452.59;;;21.55;51.10
40490;BME280;26196;52.302;10.572;2023-05-23T05:46:02;100453.03;;;21.62;50.65
40490;BME280;26196;52.302;10.572;2023-05-23T05:50:06;100454.59;;;21.65;50.35
40490;BME280;26196;52.302;10.572;2023-05-23T05:54:08;100445.25;;;21.59;50.13
40490;BME280;26196;52.302;10.572;2023-05-23T05:58:08;100442.13;;;21.65;50.00
40490;BME280;26196;52.302;10.572;2023-05-23T06:02:09;100446.28;;;21.69;50.09
40490;BME280;26196;52.302;10.572;2023-05-23T06:06:09;100446.38;;;21.68;50.07
40490;BME280;26196;52.302;10.572;2023-05-23T06:10:10;100438.13;;;21.59;50.13
40490;BME280;26196;52.302;10.572;2023-05-23T06:14:13;100455.44;;;21.65;49.98
40490;BME280;26196;52.302;10.572;2023-05-23T06:18:14;100457.13;;;21.66;50.02
40490;BME280;26196;52.302;10.572;2023-05-23T06:22:14;100457.13;;;21.66;49.97
40490;BME280;26196;52.302;10.572;2023-05-23T06:26:15;100454.47;;;21.66;49.84
40490;BME280;26196;52.302;10.572;2023-05-23T06:30:15;100454.72;;;21.63;49.79
40490;BME280;26196;52.302;10.572;2023-05-23T06:34:15;100455.03;;;21.58;49.81
40490;BME280;26196;52.302;10.572;2023-05-23T06:38:16;100456.53;;;21.62;49.25
40490;BME280;26196;52.302;10.572;2023-05-23T06:42:16;100451.53;;;21.58;49.63
40490;BME280;26196;52.302;10.572;2023-05-23T06:46:17;100446.34;;;21.56;49.74
40490;BME280;26196;52.302;10.572;2023-05-23T06:50:17;100449.19;;;21.53;49.79
40490;BME280;26196;52.302;10.572;2023-05-23T06:54:20;100434.53;;;21.48;49.74
40490;BME280;26196;52.302;10.572;2023-05-23T06:58:21;100443.78;;;21.55;49.55
40490;BME280;26196;52.302;10.572;2023-05-23T07:02:24;100446.94;;;21.60;49.57
40490;BME280;26196;52.302;10.572;2023-05-23T07:06:24;100448.13;;;21.56;49.58
40490;BME280;26196;52.302;10.572;2023-05-23T07:10:26;100456.00;;;21.57;49.14
40490;BME280;26196;52.302;10.572;2023-05-23T07:14:26;100451.03;;;21.53;49.55
40490;BME280;26196;52.302;10.572;2023-05-23T07:18:27;100439.25;;;21.44;49.66
40490;BME280;26196;52.302;10.572;2023-05-23T07:22:27;100445.09;;;21.49;49.54
40490;BME280;26196;52.302;10.572;2023-05-23T07:26:28;100450.50;;;21.48;49.45
40490;BME280;26196;52.302;10.572;2023-05-23T07:30:28;100457.78;;;21.46;49.63
40490;BME280;26196;52.302;10.572;2023-05-23T07:34:28;100460.44;;;21.46;49.59
40490;BME280;26196;52.302;10.572;2023-05-23T07:38:29;100449.81;;;21.46;49.70
40490;BME280;26196;52.302;10.572;2023-05-23T07:42:30;100449.06;;;21.44;49.71
40490;BME280;26196;52.302;10.572;2023-05-23T07:46:30;100453.53;;;21.43;49.56
40490;BME280;26196;52.302;10.572;2023-05-23T07:50:30;100444.56;;;21.44;49.61
40490;BME280;26196;52.302;10.572;2023-05-23T07:54:31;100444.50;;;21.33;49.63
40490;BME280;26196;52.302;10.572;2023-05-23T07:58:31;100460.09;;;21.37;49.73
40490;BME280;26196;52.302;10.572;2023-05-23T08:02:32;100462.91;;;21.36;49.87
40490;BME280;26196;52.302;10.572;2023-05-23T08:06:32;100456.22;;;21.30;50.11
40490;BME280;26196;52.302;10.572;2023-05-23T08:10:32;100461.31;;;21.33;49.88
40490;BME280;26196;52.302;10.572;2023-05-23T08:14:33;100472.81;;;21.34;49.84
40490;BME280;26196;52.302;10.572;2023-05-23T08:18:33;100473.03;;;21.31;50.06
40490;BME280;26196;52.302;10.572;2023-05-23T08:22:35;100471.53;;;21.27;50.04
40490;BME280;26196;52.302;10.572;2023-05-23T08:26:35;100476.25;;;21.23;50.17
40490;BME280;26196;52.302;10.572;2023-05-23T08:30:36;100483.50;;;21.21;50.36
40490;BME280;26196;52.302;10.572;2023-05-23T08:34:37;100484.09;;;21.25;50.04
40490;BME280;26196;52.302;10.572;2023-05-23T08:38:37;100488.06;;;21.19;50.34
40490;BME280;26196;52.302;10.572;2023-05-23T08:42:37;100505.97;;;21.17;50.46
40490;BME280;26196;52.302;10.572;2023-05-23T08:46:45;100500.66;;;21.17;50.57
40490;BME280;26196;52.302;10.572;2023-05-23T08:50:47;100513.84;;;21.18;50.42
40490;BME280;26196;52.302;10.572;2023-05-23T08:54:47;100517.69;;;21.14;50.35
40490;BME280;26196;52.302;10.572;2023-05-23T08:58:49;100514.16;;;21.14;50.55
40490;BME280;26196;52.302;10.572;2023-05-23T09:02:49;100518.00;;;21.10;50.56
40490;BME280;26196;52.302;10.572;2023-05-23T09:06:50;100532.25;;;21.09;50.45
40490;BME280;26196;52.302;10.572;2023-05-23T09:10:51;100539.63;;;21.05;50.62
40490;BME280;26196;52.302;10.572;2023-05-23T09:14:52;100544.72;;;21.08;50.36
40490;BME280;26196;52.302;10.572;2023-05-23T09:18:52;100549.84;;;20.98;50.74
40490;BME280;26196;52.302;10.572;2023-05-23T09:22:53;100559.63;;;20.98;50.56
40490;BME280;26196;52.302;10.572;2023-05-23T09:26:54;100553.59;;;20.96;50.50
40490;BME280;26196;52.302;10.572;2023-05-23T09:31:04;100558.03;;;20.95;50.32
40490;BME280;26196;52.302;10.572;2023-05-23T09:35:06;100566.25;;;20.92;50.41
40490;BME280;26196;52.302;10.572;2023-05-23T09:39:10;100568.16;;;20.90;50.48
40490;BME280;26196;52.302;10.572;2023-05-23T09:43:11;100570.81;;;20.90;50.28
40490;BME280;26196;52.302;10.572;2023-05-23T09:47:11;100577.09;;;20.89;50.31
40490;BME280;26196;52.302;10.572;2023-05-23T09:51:12;100580.72;;;20.88;50.28
40490;BME280;26196;52.302;10.572;2023-05-23T09:55:12;100572.22;;;20.83;50.25
40490;BME280;26196;52.302;10.572;2023-05-23T09:59:14;100593.38;;;20.85;50.37
40490;BME280;26196;52.302;10.572;2023-05-23T10:03:16;100592.22;;;20.76;50.61
40490;BME280;26196;52.302;10.572;2023-05-23T10:07:19;100599.34;;;20.75;50.67
40490;BME280;26196;52.302;10.572;2023-05-23T10:15:38;100612.63;;;20.75;50.46
40490;BME280;26196;52.302;10.572;2023-05-23T10:19:59;100610.91;;;20.74;50.52
40490;BME280;26196;52.302;10.572;2023-05-23T10:24:02;100622.75;;;20.70;50.36
40490;BME280;26196;52.302;10.572;2023-05-23T10:28:03;100625.28;;;20.72;50.53
40490;BME280;26196;52.302;10.572;2023-05-23T10:32:05;100633.38;;;20.70;50.64
40490;BME280;26196;52.302;10.572;2023-05-23T10:36:16;100639.97;;;20.65;50.75
40490;BME280;26196;52.302;10.572;2023-05-23T10:40:26;100640.16;;;20.62;50.83
40490;BME280;26196;52.302;10.572;2023-05-23T10:44:30;100650.25;;;20.57;50.63
40490;BME280;26196;52.302;10.572;2023-05-23T10:48:33;100650.41;;;20.53;50.69
40490;BME280;26196;52.302;10.572;2023-05-23T10:52:41;100661.25;;;20.50;50.69
40490;BME280;26196;52.302;10.572;2023-05-23T10:56:42;100666.59;;;20.50;50.90
40490;BME280;26196;52.302;10.572;2023-05-23T11:00:56;100664.13;;;20.47;50.68
40490;BME280;26196;52.302;10.572;2023-05-23T11:05:26;100680.72;;;20.51;50.46
40490;BME280;26196;52.302;10.572;2023-05-23T11:09:27;100657.38;;;20.29;50.47
40490;BME280;26196;52.302;10.572;2023-05-23T11:17:56;100687.91;;;20.36;50.77
40490;BME280;26196;52.302;10.572;2023-05-23T11:21:59;100702.16;;;20.35;50.92
40490;BME280;26196;52.302;10.572;2023-05-23T11:26:00;100694.66;;;20.27;50.77
40490;BME280;26196;52.302;10.572;2023-05-23T11:30:04;100704.38;;;20.28;50.76
40490;BME280;26196;52.302;10.572;2023-05-23T11:34:06;100706.91;;;20.30;50.65
40490;BME280;26196;52.302;10.572;2023-05-23T11:38:07;100696.78;;;20.22;50.73
40490;BME280;26196;52.302;10.572;2023-05-23T11:42:07;100720.81;;;20.21;50.56
40490;BME280;26196;52.302;10.572;2023-05-23T11:46:08;100709.81;;;20.13;50.76
40490;BME280;26196;52.302;10.572;2023-05-23T11:50:09;100726.28;;;20.18;50.57
40490;BME280;26196;52.302;10.572;2023-05-23T11:54:09;100739.13;;;20.11;50.66
40490;BME280;26196;52.302;10.572;2023-05-23T11:58:10;100754.22;;;20.10;50.55
40490;BME280;26196;52.302;10.572;2023-05-23T12:02:10;100746.47;;;20.07;50.54
40490;BME280;26196;52.302;10.572;2023-05-23T12:06:14;100759.75;;;20.07;50.49
40490;BME280;26196;52.302;10.572;2023-05-23T12:10:15;100749.75;;;19.97;50.75
40490;BME280;26196;52.302;10.572;2023-05-23T12:14:16;100764.00;;;19.96;50.67
40490;BME280;26196;52.302;10.572;2023-05-23T12:18:18;100764.09;;;19.94;50.37
40490;BME280;26196;52.302;10.572;2023-05-23T12:22:22;100764.28;;;19.91;50.84
40490;BME280;26196;52.302;10.572;2023-05-23T12:26:23;100782.50;;;19.83;51.02
40490;BME280;26196;52.302;10.572;2023-05-23T12:30:25;100783.66;;;19.79;51.00
40490;BME280;26196;52.302;10.572;2023-05-23T12:34:25;100785.44;;;19.78;50.87
40490;BME280;26196;52.302;10.572;2023-05-23T12:38:27;100801.22;;;19.65;50.95
40490;BME280;26196;52.302;10.572;2023-05-23T12:42:27;100799.91;;;19.58;51.08
40490;BME280;26196;52.302;10.572;2023-05-23T12:46:27;100806.84;;;19.61;50.85
40490;BME280;26196;52.302;10.572;2023-05-23T12:50:28;100799.59;;;19.49;51.06
40490;BME280;26196;52.302;10.572;2023-05-23T12:54:30;100809.25;;;19.35;51.33
40490;BME280;26196;52.302;10.572;2023-05-23T12:58:30;100809.63;;;19.13;51.74
40490;BME280;26196;52.302;10.572;2023-05-23T13:02:31;100818.06;;;19.36;51.36
40490;BME280;26196;52.302;10.572;2023-05-23T13:06:31;100816.66;;;19.44;50.88
40490;BME280;26196;52.302;10.572;2023-05-23T13:10:32;100816.38;;;19.35;51.73
40490;BME280;26196;52.302;10.572;2023-05-23T13:14:32;100822.88;;;19.29;51.58
40490;BME280;26196;52.302;10.572;2023-05-23T13:18:33;100827.91;;;19.34;51.47
40490;BME280;26196;52.302;10.572;2023-05-23T13:22:33;100828.09;;;19.31;51.87
40490;BME280;26196;52.302;10.572;2023-05-23T13:26:34;100821.09;;;19.30;51.64
40490;BME280;26196;52.302;10.572;2023-05-23T13:30:34;100824.31;;;19.35;51.95
40490;BME280;26196;52.302;10.572;2023-05-23T13:34:35;100829.78;;;19.32;52.14
40490;BME280;26196;52.302;10.572;2023-05-23T13:38:36;100825.03;;;19.22;52.25
40490;BME280;26196;52.302;10.572;2023-05-23T13:42:36;100835.66;;;19.22;52.27
40490;BME280;26196;52.302;10.572;2023-05-23T13:46:37;100835.84;;;19.19;52.77
40490;BME280;26196;52.302;10.572;2023-05-23T13:50:38;100836.16;;;19.29;53.05
40490;BME280;26196;52.302;10.572;2023-05-23T13:54:38;100847.63;;;19.30;52.81
40490;BME280;26196;52.302;10.572;2023-05-23T13:58:39;100843.34;;;19.27;52.84
40490;BME280;26196;52.302;10.572;2023-05-23T14:02:39;100854.81;;;19.28;52.79
40490;BME280;26196;52.302;10.572;2023-05-23T14:11:36;100858.97;;;19.32;51.87
40490;BME280;26196;52.302;10.572;2023-05-23T14:15:36;100870.22;;;19.21;50.36
40490;BME280;26196;52.302;10.572;2023-05-23T14:19:37;100872.91;;;18.89;49.30
40490;BME280;26196;52.302;10.572;2023-05-23T14:23:37;100872.63;;;18.46;49.05
40490;BME280;26196;52.302;10.572;2023-05-23T14:27:38;100880.34;;;18.18;48.67
40490;BME280;26196;52.302;10.572;2023-05-23T14:31:39;100875.94;;;18.17;48.74
40490;BME280;26196;52.302;10.572;2023-05-23T14:35:39;100873.81;;;18.41;49.20
40490;BME280;26196;52.302;10.572;2023-05-23T14:39:41;100870.47;;;18.53;49.48
40490;BME280;26196;52.302;10.572;2023-05-23T14:43:42;100869.19;;;18.60;50.10
40490;BME280;26196;52.302;10.572;2023-05-23T14:47:42;100861.84;;;18.65;50.59
40490;BME280;26196;52.302;10.572;2023-05-23T14:51:42;100871.97;;;18.74;49.37
40490;BME280;26196;52.302;10.572;2023-05-23T14:55:43;100887.94;;;18.73;49.90
40490;BME280;26196;52.302;10.572;2023-05-23T14:59:43;100886.13;;;18.73;49.91
40490;BME280;26196;52.302;10.572;2023-05-23T15:03:43;100892.16;;;18.77;50.19
40490;BME280;26196;52.302;10.572;2023-05-23T15:07:43;100879.41;;;18.84;51.03
40490;BME280;26196;52.302;10.572;2023-05-23T15:11:44;100890.81;;;18.86;51.69
40490;BME280;26196;52.302;10.572;2023-05-23T15:15:46;100886.53;;;18.83;50.72
40490;BME280;26196;52.302;10.572;2023-05-23T15:19:48;100892.44;;;18.88;50.72
40490;BME280;26196;52.302;10.572;2023-05-23T15:23:48;100898.75;;;18.86;50.17
40490;BME280;26196;52.302;10.572;2023-05-23T15:27:48;100897.56;;;18.91;50.31
40490;BME280;26196;52.302;10.572;2023-05-23T15:31:49;100894.13;;;18.89;50.60
40490;BME280;26196;52.302;10.572;2023-05-23T15:35:49;100899.97;;;18.96;50.51
40490;BME280;26196;52.302;10.572;2023-05-23T15:39:50;100897.13;;;18.99;50.46
40490;BME280;26196;52.302;10.572;2023-05-23T15:43:51;100893.69;;;18.97;50.65
40490;BME280;26196;52.302;10.572;2023-05-23T15:47:51;100886.53;;;18.99;50.69
40490;BME280;26196;52.302;10.572;2023-05-23T15:51:51;100897.13;;;18.99;50.90
40490;BME280;26196;52.302;10.572;2023-05-23T15:55:53;100900.75;;;18.98;49.76
40490;BME280;26196;52.302;10.572;2023-05-23T15:59:53;100899.25;;;18.92;50.13
40490;BME280;26196;52.302;10.572;2023-05-23T16:03:54;100891.22;;;18.94;49.77
40490;BME280;26196;52.302;10.572;2023-05-23T16:07:54;100896.78;;;18.89;49.75
40490;BME280;26196;52.302;10.572;2023-05-23T16:11:56;100905.34;;;18.94;49.01
40490;BME280;26196;52.302;10.572;2023-05-23T16:15:57;100919.38;;;18.96;48.35
40490;BME280;26196;52.302;10.572;2023-05-23T16:19:58;100902.00;;;18.91;48.83
40490;BME280;26196;52.302;10.572;2023-05-23T16:23:59;100906.19;;;18.95;48.26
40490;BME280;26196;52.302;10.572;2023-05-23T16:28:00;100905.53;;;18.91;47.25
40490;BME280;26196;52.302;10.572;2023-05-23T16:32:00;100901.59;;;18.83;47.51
40490;BME280;26196;52.302;10.572;2023-05-23T16:36:01;100908.25;;;18.90;47.55
40490;BME280;26196;52.302;10.572;2023-05-23T16:40:02;100911.84;;;18.89;46.60
40490;BME280;26196;52.302;10.572;2023-05-23T16:44:02;100906.72;;;18.86;47.12
40490;BME280;26196;52.302;10.572;2023-05-23T16:48:03;100916.19;;;18.90;46.92
40490;BME280;26196;52.302;10.572;2023-05-23T16:57:10;100925.78;;;18.92;47.31
40490;BME280;26196;52.302;10.572;2023-05-23T17:01:10;100934.63;;;18.93;47.24
40490;BME280;26196;52.302;10.572;2023-05-23T17:05:10;100930.25;;;18.92;46.49
40490;BME280;26196;52.302;10.572;2023-05-23T17:09:11;100927.09;;;18.85;46.02
40490;BME280;26196;52.302;10.572;2023-05-23T17:13:12;100925.88;;;18.91;46.69
40490;BME280;26196;52.302;10.572;2023-05-23T17:17:13;100929.47;;;18.90;46.52
40490;BME280;26196;52.302;10.572;2023-05-23T17:21:13;100937.16;;;18.94;46.23
40490;BME280;26196;52.302;10.572;2023-05-23T17:25:13;100932.28;;;18.87;46.28
40490;BME280;26196;52.302;10.572;2023-05-23T17:29:14;100935.72;;;18.89;46.04
40490;BME280;26196;52.302;10.572;2023-05-23T17:33:16;100944.53;;;18.89;45.75
40490;BME280;26196;52.302;10.572;2023-05-23T17:37:16;100948.19;;;18.87;45.88
40490;BME280;26196;52.302;10.572;2023-05-23T17:41:18;100954.28;;;18.89;46.03
40490;BME280;26196;52.302;10.572;2023-05-23T17:45:19;100950.84;;;18.87;45.48
40490;BME280;26196;52.302;10.572;2023-05-23T17:49:21;100961.28;;;18.90;45.67
40490;BME280;26196;52.302;10.572;2023-05-23T17:53:21;100958.03;;;18.85;45.99
40490;BME280;26196;52.302;10.572;2023-05-23T17:57:21;100971.22;;;18.86;45.27
40490;BME280;26196;52.302;10.572;2023-05-23T18:01:22;100964.53;;;18.79;44.55
40490;BME280;26196;52.302;10.572;2023-05-23T18:05:23;100970.69;;;18.79;44.83
40490;BME280;26196;52.302;10.572;2023-05-23T18:09:23;100978.34;;;18.86;45.65
40490;BME280;26196;52.302;10.572;2023-05-23T18:13:24;100994.41;;;18.83;46.04
40490;BME280;26196;52.302;10.572;2023-05-23T18:17:24;100992.06;;;18.76;45.50
40490;BME280;26196;52.302;10.572;2023-05-23T18:21:26;100995.72;;;18.74;44.94
40490;BME280;26196;52.302;10.572;2023-05-23T18:25:26;101001.41;;;18.66;43.82
40490;BME280;26196;52.302;10.572;2023-05-23T18:29:27;101008.75;;;18.61;43.62
40490;BME280;26196;52.302;10.572;2023-05-23T18:33:27;101009.72;;;18.43;42.31
40490;BME280;26196;52.302;10.572;2023-05-23T18:37:27;101010.84;;;18.39;43.44
40490;BME280;26196;52.302;10.572;2023-05-23T18:41:28;101019.47;;;18.42;43.25
40490;BME280;26196;52.302;10.572;2023-05-23T18:45:28;101016.16;;;18.39;43.33
40490;BME280;26196;52.302;10.572;2023-05-23T18:49:29;101022.53;;;18.34;42.72
40490;BME280;26196;52.302;10.572;2023-05-23T18:53:29;101025.28;;;18.33;42.55
40490;BME280;26196;52.302;10.572;2023-05-23T18:57:30;101029.72;;;18.15;42.01
40490;BME280;26196;52.302;10.572;2023-05-23T19:01:33;101039.38;;;18.16;42.30
40490;BME280;26196;52.302;10.572;2023-05-23T19:05:33;101048.09;;;18.18;43.03
40490;BME280;26196;52.302;10.572;2023-05-23T19:09:34;101057.38;;;18.27;43.43
40490;BME280;26196;52.302;10.572;2023-05-23T19:13:34;101053.69;;;18.29;43.12
40490;BME280;26196;52.302;10.572;2023-05-23T19:17:35;101071.81;;;18.39;43.59
40490;BME280;26196;52.302;10.572;2023-05-23T19:21:35;101060.97;;;18.26;42.45
40490;BME280;26196;52.302;10.572;2023-05-23T19:25:35;101081.94;;;18.30;42.13
40490;BME280;26196;52.302;10.572;2023-05-23T19:29:36;101092.75;;;18.26;42.50
40490;BME280;26196;52.302;10.572;2023-05-23T19:33:37;101097.97;;;18.27;42.02
40490;BME280;26196;52.302;10.572;2023-05-23T19:37:37;101100.56;;;18.29;42.46
40490;BME280;26196;52.302;10.572;2023-05-23T19:41:39;101104.91;;;18.30;42.19
40490;BME280;26196;52.302;10.572;2023-05-23T19:45:39;101094.09;;;18.17;42.20
40490;BME280;26196;52.302;10.572;2023-05-23T19:49:40;101107.88;;;18.24;42.23
40490;BME280;26196;52.302;10.572;2023-05-23T19:53:41;101104.69;;;18.17;41.83
40490;BME280;26196;52.302;10.572;2023-05-23T19:57:41;101104.81;;;18.14;41.72
40490;BME280;26196;52.302;10.572;2023-05-23T20:01:41;101106.81;;;18.09;41.58
40490;BME280;26196;52.302;10.572;2023-05-23T20:05:43;101126.09;;;18.12;41.46
40490;BME280;26196;52.302;10.572;2023-05-23T20:09:43;101120.22;;;18.06;40.85
40490;BME280;26196;52.302;10.572;2023-05-23T20:13:43;101121.00;;;18.08;41.92
40490;BME280;26196;52.302;10.572;2023-05-23T20:17:43;101131.81;;;18.03;41.81
40490;BME280;26196;52.302;10.572;2023-05-23T20:21:44;101126.63;;;18.02;41.61
40490;BME280;26196;52.302;10.572;2023-05-23T20:25:44;101132.94;;;17.99;41.18
40490;BME280;26196;52.302;10.572;2023-05-23T20:29:45;101143.38;;;18.02;41.43
40490;BME280;26196;52.302;10.572;2023-05-23T20:33:45;101152.31;;;18.00;41.08
40490;BME280;26196;52.302;10.572;2023-05-23T20:37:45;101162.13;;;17.98;41.21
40490;BME280;26196;52.302;10.572;2023-05-23T20:41:46;101151.97;;;17.88;41.29
40490;BME280;26196;52.302;10.572;2023-05-23T20:45:48;101164.13;;;17.92;40.91
40490;BME280;26196;52.302;10.572;2023-05-23T20:49:48;101156.19;;;17.92;40.90
40490;BME280;26196;52.302;10.572;2023-05-23T20:53:49;101146.94;;;17.82;41.02
40490;BME280;26196;52.302;10.572;2023-05-23T20:57:50;101156.69;;;17.82;41.88
40490;BME280;26196;52.302;10.572;2023-05-23T21:01:51;101160.13;;;17.84;41.17
40490;BME280;26196;52.302;10.572;2023-05-23T21:05:52;101163.00;;;17.79;40.92
40490;BME280;26196;52.302;10.572;2023-05-23T21:09:53;101157.97;;;17.73;41.74
40490;BME280;26196;52.302;10.572;2023-05-23T21:13:53;101153.09;;;17.64;40.69